aviador You're here:

KHLR Decoded Metar

FORT HOOD in TX, USA
Report Time2017-05-29 03:20:00
UTC Time2017-05-29 03:56:32
Flight Rules vfr VFR
Wind360° at 16 Gusting to 19 kt
W.Decomp.*RWY 34: 15.5 kt HW 4.1 kt RCW
Visibility9999 m
Phenomena:Light Rain
Clouds:Broken 095 Hf
Overcast 120 Hf
Expected CloudBase > 400 ft AGL from Temp-Dew spread
Ceiling9,500 ft
Temp20°C (ISA +7)
Dew Point19°C (94% RH)
AAT17.5°C
QNH1016 hPa
Density Alt1,923 ft
Elevation928 ft
Report Wrong Elevation
Raw Report
KHLR 290320Z AUTO 36016G19KT 8SM -RA BKN095 OVC120 20/19 A2999 RMK
AO2 PRESRR SLP146=

Extra information for KHLR:More info

Metar Taf Metar & Taf Last 4 Metars F.Rules Stats Wind Profile Meteogram Temp Stats Airport Information Weather charts Add Link Nearby VenuesMetar ALERT Operation Metar Decoded Social comments

AIRNAV info for KHLR